Airfield :
LOGIN :

Register | Disclaimer

   EN    FR    IT 

 










Legend :    VFR   Marginal VFR   IFR   Intensive IFR   Very Intensive IFR
Visi :
Ceiling :
>= 8 km
>= 3000ft
5 to 8 km
1000 to 3000 ft
1500m to 5 km
500 to 1000 ft
800 to 1500m
200 to 500 ft
< 800m
< 200 ft
Symbols :   Thunderstorms  Fog  Heavy snow  Heavy precipitations  Wind > 20 kt
SIGMETs :     Misc.  Thunderstorms  Icing  Turbulence  Mountain Waves  Volcanic Ashes






- Airport Elevation : 230 ft


ETHB - Buckeburg Army

CURRENT METAR :
  • 081020Z 26008KT 9999 -RA FEW005 BKN044 BKN070 03/01 Q1006 RERASN BLU GRN TEMPO BLU

EXPIRED METARs :
  • 080950Z 29007KT 8000 -RADZ FEW004 BKN007 OVC060 03/01 Q1006 RERASN GRN GRN TEMPO YLO
  • 080920Z 31008KT 6000 RASN FEW004 BKN006 OVC060 02/01 Q1006 YLO GRN TEMPO YLO
  • 080820Z 26009KT 7000 -RADZ FEW006 OVC008 03/02 Q1005 GRN GRN TEMPO YLO

TAF TAF ETHB
Valid from the 08 at 09:00 until the 08 at 18:00 UTC


080818Z 0809/0818 26010KT 8000 -RADZ BKN010 BKN020
TEMPO 0809/0812 25012KT 3500 RASN BKN006 BKN015
BECMG 0811/0813 25012KT 9999 NSW SCT012 BKN020
PROB30 0812/0818 25012G22KT 3000 SHRASN BKN005 BKN012CB



MET'MAP, your aeronautical weather chart ! - Copyright ORBIFLY December 2007 - Disclaimer

ORBIFLY MET'MAP TEAM :

Programming & Development : Alexandra Zaïnal
Original concept : Baudouin d'Aumeries
Technical & hardware support : Manuel Goepfert
Assistance : Marc-Olivier Méhu




SOURCES & CREDITS :

   NOAA